createdAt,value
2022-12-01T15:37:20.705Z,18.92
2022-12-01T15:39:49.527Z,16.83
2022-12-01T15:42:30.488Z,18.65
2022-12-01T15:45:00.364Z,18.65
2022-12-01T15:47:32.631Z,18.98
2022-12-01T15:49:59.141Z,19.42
2022-12-01T15:52:28.082Z,20.08
2022-12-01T15:55:02.953Z,21.05
2022-12-01T15:57:29.466Z,20.08
2022-12-01T15:59:57.159Z,19.73
2022-12-01T16:02:23.743Z,20.67
2022-12-01T16:04:59.414Z,20.73
2022-12-01T16:08:04.427Z,20.70
2022-12-01T16:10:44.985Z,22.17
2022-12-01T16:13:29.933Z,21.48
2022-12-01T16:15:58.055Z,21.95
2022-12-01T16:18:45.078Z,22.30
2022-12-01T16:21:17.350Z,22.30
2022-12-01T16:23:43.814Z,22.60
2022-12-01T16:26:17.619Z,24.92
2022-12-01T16:28:45.565Z,22.70
2022-12-01T16:31:26.240Z,23.48
2022-12-01T16:34:13.765Z,22.88
2022-12-01T16:36:45.884Z,23.63
2022-12-01T16:39:13.568Z,24.08
2022-12-01T16:41:43.880Z,24.02
2022-12-01T16:44:37.318Z,24.45
2022-12-01T16:47:03.859Z,24.23
2022-12-01T16:49:34.335Z,24.60
2022-12-01T16:52:06.954Z,25.65
2022-12-01T16:54:48.347Z,24.65
2022-12-01T16:57:19.990Z,24.48
2022-12-01T16:59:49.502Z,26.45
2022-12-01T17:02:16.107Z,27.00
2022-12-01T17:04:42.656Z,24.13
2022-12-01T17:07:09.137Z,27.33
2022-12-01T17:09:35.808Z,28.35
2022-12-01T17:12:02.308Z,26.65
2022-12-01T17:14:28.755Z,25.83
2022-12-01T17:16:55.246Z,25.88
2022-12-01T17:19:21.688Z,27.85
2022-12-01T17:21:48.109Z,27.05
2022-12-01T17:24:18.869Z,26.65
2022-12-01T17:26:45.815Z,28.60
2022-12-01T17:29:12.348Z,27.60
2022-12-01T17:31:38.891Z,26.17
2022-12-01T17:34:05.481Z,26.35
2022-12-01T17:36:31.996Z,27.45
2022-12-01T17:38:58.820Z,26.23
2022-12-01T17:41:32.053Z,25.00
2022-12-01T17:43:58.590Z,24.75
2022-12-01T17:46:25.616Z,25.95
2022-12-01T17:48:52.199Z,24.38
2022-12-01T17:51:18.692Z,24.38
2022-12-01T17:53:45.215Z,24.55
2022-12-01T17:56:12.909Z,23.73
2022-12-01T17:58:39.644Z,23.58
2022-12-01T18:01:06.931Z,22.15
2022-12-01T18:03:33.522Z,23.08
2022-12-01T18:06:00.811Z,23.85
2022-12-01T18:08:28.093Z,20.52
2022-12-01T18:10:54.583Z,21.77
2022-12-01T18:13:21.815Z,20.48
2022-12-01T18:15:48.847Z,21.98
2022-12-01T18:18:15.565Z,20.70
2022-12-01T18:20:43.318Z,20.88
2022-12-01T18:23:10.254Z,21.13
2022-12-01T18:25:37.390Z,21.25
2022-12-01T18:28:04.766Z,20.40
2022-12-01T18:34:21.542Z,20.13
2022-12-01T18:36:48.100Z,20.10
2022-12-01T18:42:34.359Z,21.10
2022-12-01T18:45:00.881Z,20.15
2022-12-01T18:47:34.161Z,21.70
2022-12-01T18:50:00.680Z,21.27
2022-12-01T18:52:54.434Z,20.33
2022-12-01T18:55:58.542Z,20.15
2022-12-01T18:58:25.043Z,22.67
2022-12-01T19:36:07.294Z,21.55
2022-12-01T19:38:33.862Z,24.00
2022-12-01T19:57:52.429Z,21.83
2022-12-01T20:00:19.803Z,22.08
2022-12-01T20:02:46.321Z,23.73
2022-12-01T20:05:18.250Z,23.83
2022-12-01T20:07:44.728Z,22.50
2022-12-01T20:10:15.967Z,26.35
2022-12-01T20:12:42.477Z,26.33
2022-12-01T20:15:09.458Z,25.20
2022-12-01T20:17:36.988Z,25.45
2022-12-01T20:20:04.058Z,25.13
2022-12-01T20:22:31.592Z,24.92
2022-12-01T20:24:58.422Z,23.90
2022-12-01T20:27:52.751Z,23.67
2022-12-01T20:31:04.147Z,23.50
2022-12-01T20:33:36.983Z,23.20
2022-12-01T20:36:15.244Z,25.10
2022-12-01T20:38:48.885Z,23.67
2022-12-01T20:41:17.050Z,24.15
2022-12-01T20:43:43.653Z,24.75
2022-12-01T20:46:10.906Z,26.63
2022-12-01T20:48:37.560Z,25.73
2022-12-01T20:51:04.634Z,25.83
2022-12-01T20:53:32.259Z,25.55
2022-12-01T20:56:02.287Z,25.87
2022-12-01T20:58:31.070Z,26.38
2022-12-01T21:01:06.093Z,25.98
2022-12-01T21:07:52.828Z,24.95
2022-12-01T21:10:20.372Z,25.85
2022-12-01T21:13:07.935Z,28.90
2022-12-01T21:15:38.421Z,28.27
2022-12-01T21:18:09.189Z,28.55
2022-12-01T21:20:47.373Z,29.05
2022-12-01T21:23:45.601Z,29.70
2022-12-01T21:26:21.201Z,28.45
2022-12-01T21:28:47.721Z,28.42
2022-12-01T21:31:25.127Z,29.17
2022-12-01T21:33:56.253Z,30.02
2022-12-01T21:36:33.273Z,29.90
2022-12-01T21:39:02.244Z,31.13
2022-12-01T21:41:29.545Z,30.08
2022-12-01T21:44:00.146Z,31.85
2022-12-01T21:46:27.070Z,31.77
2022-12-01T21:48:54.408Z,30.80
2022-12-01T21:51:22.999Z,30.58
2022-12-01T21:56:23.780Z,29.45
2022-12-01T21:58:50.393Z,31.13
2022-12-01T22:01:22.920Z,30.30
2022-12-01T22:03:49.653Z,31.60
2022-12-01T22:06:30.316Z,32.15
2022-12-01T22:09:02.112Z,31.13
2022-12-01T22:11:29.536Z,31.65
2022-12-01T22:14:07.970Z,32.88
2022-12-01T22:19:02.421Z,32.00
2022-12-01T22:21:36.582Z,31.98
2022-12-01T22:24:09.247Z,32.80
2022-12-01T22:26:40.851Z,34.72
2022-12-01T22:29:16.496Z,33.78
2022-12-01T22:31:43.004Z,35.25
2022-12-01T22:34:11.804Z,34.58
2022-12-01T22:36:38.325Z,35.50
2022-12-01T22:39:11.322Z,35.58
2022-12-01T22:41:37.732Z,34.42
2022-12-01T22:44:04.477Z,35.92
2022-12-01T22:46:35.006Z,34.63
2022-12-01T22:49:08.160Z,35.15
2022-12-01T22:51:41.056Z,35.30
2022-12-01T22:54:10.318Z,34.97
2022-12-01T22:56:41.272Z,34.75
2022-12-01T22:59:43.267Z,35.10
2022-12-01T23:02:20.784Z,35.25
2022-12-01T23:04:49.004Z,36.05
2022-12-01T23:07:15.702Z,35.95
2022-12-01T23:09:43.195Z,32.90
2022-12-01T23:12:09.648Z,34.38
2022-12-01T23:14:38.678Z,34.63
2022-12-01T23:17:06.843Z,34.63
